首页
METAR-TAF:

METAR-TAF

机场 :

格拉茨, 奥地利

纬度: 47-00N, 经度: 015-26E, 海拔: 340米

当前天气观测

该预报发布于23分钟前的01:20 UTC
风速2节,风向西北
温度 10°C
湿度 93%
气压 1014 hPa
能见度10公里或以上

METAR: LOWG 200120Z AUTO 31002KT 9999 NSC 10/09 Q1014

时间: 03:43 (01:43 UTC)

预报

该预报发布于2小时和28分钟前的23:15 UTC
预报有效从20日的 00点(UTC)到 20日的 24点(UTC)
风速3节,风向南转西南
能见度10公里或以上
1500米以下无云,无积雨云
几率 30% :
短暂存在
从 20日的 03点(UTC)到 20日的 07点(UTC)
能見度: 0800
碎片雾
短暂存在
从 20日的 10点(UTC)到 20日的 17点(UTC)
风速12节,风向南转西南

TAF: LOWG 192315Z 2000/2024 20003KT CAVOK TX22/2013Z TN08/2005Z PROB30 TEMPO 2003/2007 0800 BCFG NSC TEMPO 2010/2017 20012KT

超过4000个机场的气象观测和天气预报(METAR&TAF报告)。

可查询的气象台以黄色和红色小点在地图上表示。

将鼠标移到小点上方,可查看气象台名称。

然后点击查看天气观测和预报。

如需切换地图:点击带黑十字的绿色按钮放大地图;点击带横线的绿色按钮缩小地图;或者点击绿色箭头查看邻近地区的地图。


METAR-TAF: